Tiempo atmosférico en la estación meteorológica de Santa Elena, Jaén (742 m.)



Fecha
DESCASC
Temp. máxima en grados centígrados (hora)
DESCASC
Temp. mínima en grados centígrados (hora)
DESCASC
Temp. media en grados centígrados
DESCASC
Racha de viento máxima en m/sg (hora)
DESCASC
Velocidad máxima media en intervalos de 10 minutos(hora)
DESCASC
Precipitaciones diarias en mm
DESCASC
Precipitaciones de 00:00 a 06:00 en mm
DESCASC
Precipitaciones de 06:00 a 12:00 en mm
DESCASC
Precipitaciones de 12:00 a 18:00 en mm
DESCASC
Precipitaciones de 18:00 a 24:00 en mm
DESCASC
03-04-2019 19.2 (16:10) 7.3 (00:00) 13.3 -- (--) -- (--) 0 0 0 0 0
27-03-2019 18.5 (16:40) 4.6 (00:00) 11.5 -- (--) -- (--) 0 0 0 0 0
31-03-2019 12.6 (18:30) 8.8 (00:00) 10.7 5 (14:50) 3.06 (14:50) 11.2 3.2 7.2 0.8 0
29-03-2019 19.1 (16:50) 4.1 (00:00) 11.6 6.39 (16:00) 2.5 (21:20) 0 0 0 0 0
30-03-2019 22.8 (16:20) 5.8 (00:00) 14.3 6.39 (15:40) 2.5 (15:40) 0 0 0 0 0
28-03-2019 19.7 (16:20) 3.4 (00:00) 11.6 6.94 (12:20) 3.06 (12:40) 0 0 0 0 0
02-04-2019 18.5 (17:20) 8.2 (00:00) 13.3 7.5 (18:20) 3.89 (19:20) 0 0 0 0 0
14-04-2019 23.4 (17:50) 7.9 (00:00) 15.6 7.5 (16:10) 3.33 (18:50) 0 0 0 0 0
13-04-2019 20.8 (16:10) 7.1 (00:00) 13.9 7.5 (18:10) 4.17 (00:20) 0 0 0 0 0
18-04-2019 13.5 (00:00) 8.2 (00:00) 10.8 7.78 (11:40) 3.61 (12:10) 16.8 5.2 11.4 0.2 0
16-04-2019 23.6 (17:20) 8.8 (00:00) 16.2 7.78 (01:10) 4.17 (01:00) 0 0 0 0 0
12-04-2019 18.6 (18:00) 5.9 (00:00) 12.3 7.78 (10:10) 4.17 (10:10) 0 0 0 0 0
01-04-2019 16.6 (17:00) 8.4 (00:00) 12.5 8.61 (17:50) 4.44 (17:50) 0 0 0 0 0
22-04-2019 17 (17:10) 7.3 (06:50) 12.2 10.56 (04:30) 5.83 (04:30) 0.2 0 0.2 0 0
04-04-2019 17.4 (15:50) 4.5 (00:00) 10.9 10.56 (01:30) 5.83 (11:00) 0 0 0 0 0
11-04-2019 15.9 (17:20) 3.6 (00:00) 9.7 11.11 (17:40) 5.28 (17:40) 0 0 0 0 0
07-04-2019 11.2 (16:30) 3.9 (00:00) 7.5 11.67 (04:30) 4.72 (05:00) 2.8 0.8 0.6 0.4 1
19-04-2019 15.6 (15:10) 7.2 (23:30) 11.4 11.67 (18:50) 6.94 (18:20) 0 0 0 0 0
06-04-2019 8.2 (13:30) 3.5 (00:00) 5.8 11.94 (18:40) 6.11 (18:40) 10 2.2 4.2 3.4 0.2
17-04-2019 25.5 (16:00) 10.4 (00:00) 17.9 11.94 (19:30) 6.11 (18:20) 0 0 0 0 0
05-04-2019 8.6 (00:00) 4.1 (00:00) 6.4 12.5 (14:50) 5.56 (01:30) 18.6 0 7.4 10.4 0.8
21-04-2019 11.1 (16:10) 7 (07:10) 9.1 12.5 (16:30) 6.39 (01:40) 0 0 0 0 0
08-04-2019 12.4 (16:50) 8.1 (00:00) 10.3 12.78 (19:20) 5.56 (22:00) 14.2 3 1.6 4.2 5.4
09-04-2019 12.1 (17:30) 5 (00:00) 8.6 13.33 (19:00) 6.11 (19:00) 3 0 0 2 1
10-04-2019 13.3 (17:00) 5 (00:00) 9.2 14.72 (19:40) 8.89 (19:30) 1 0 0 0 1
15-04-2019 24.2 (15:40) 12.4 (00:00) 18.3 14.72 (15:20) 6.11 (19:20) 0 0 0 0 0
20-04-2019 12.3 (16:40) 7.1 (00:10) 9.7 16.39 (15:50) 7.78 (15:20) 11 2.6 8.4 0 0

Gráficas

Temp. máximas Temp. mínimas Temp. medias Precipitaciones Rachas de viento máximas Velocidades máximas media en intervalos de 10 minutos

Datos horarios

Fecha y hora oficial Temperatura (ºC) Velocidad del viento (km/h) Dirección del viento Racha (km/h) Dirección de racha Precipitación (mm) Presión (hPa) Tendencia (hPa) Humedad (%)
2019-04-25 23:00:00 7.6 15 Noroeste 26 Oeste 0 930.9 2.8 80
2019-04-25 22:00:00 8 12 Noroeste 23 Noroeste 0.2 930 2.1 84
2019-04-25 21:00:00 9.3 10 Oeste 21 Oeste 0.2 929.1 1.8 82
2019-04-25 20:00:00 10.8 8 Oeste 30 Oeste 0.2 928.1 1.3 80
2019-04-25 19:00:00 11.3 10 Sudoeste 41 Oeste 0.8 927.9 1 83
2019-04-25 18:00:00 10.3 12 Sudoeste 33 Oeste 1.6 927.3 1 84
2019-04-25 17:00:00 12 13 Sudoeste 34 Sur 0.6 926.8 0 86
2019-04-25 16:00:00 10 17 Oeste 38 Sur 1.8 926.9 0.1 79
2019-04-25 15:00:00 13.3 17 Sur 36 Sudoeste 0 926.3 -0.3 71
2019-04-25 14:00:00 11.3 14 Sudoeste 34 Sudoeste 0 926.8 1.1 83
2019-04-25 13:00:00 9 10 Sudoeste 26 Sudoeste 0 926.8 2.2 89
2019-04-25 12:00:00 8.1 9 Sudoeste 31 Oeste 0 926.6 2.8 90
2019-04-25 11:00:00 8.8 15 Oeste 32 Oeste 0.2 925.7 2.5 91
2019-04-25 10:00:00 9.1 11 Oeste 24 Sudoeste 0.4 924.6 2.7 91
2019-04-25 09:00:00 9.2 13 Sudoeste 25 Oeste 0.6 923.8 1.8 91
2019-04-25 08:00:00 9.2 12 Oeste 31 Sudoeste 3.4 923.2 1.3 92
2019-04-25 07:00:00 10.3 16 Sudoeste 49 Sudoeste 3.2 921.9 0.3 92
2019-04-25 06:00:00 10.2 21 Sudoeste 60 Sudoeste 0.4 922 -0.1 92
2019-04-25 05:00:00 10.1 21 Sudoeste 53 Sudoeste 0.6 921.9 -0.7 92
2019-04-25 04:00:00 9.9 19 Sur 53 Sur 1.2 921.6 -1 91
2019-04-25 03:00:00 10 20 Sur 55 Sudoeste 0.4 922.1 -1 91
2019-04-25 02:00:00 9.6 16 Sur 41 Sur 1 922.6 -0.5 91
2019-04-25 01:00:00 9.5 17 Sur 38 Sur 1 922.6 -0.3 91
2019-04-25 00:00:00 9.6 13 Sur 41 Sur 0.8 923.1 1.1 90
2019-04-24 23:00:00 9.7 12 Sur 44 Sur 0.8 923.1 1.3 90
2019-04-24 22:00:00 9.9 16 Sur 40 Sur 1.8 922.9 1.1 90
2019-04-24 21:00:00 10.2 9 Sur 30 Sur 0.6 922 0.3 89
2019-04-24 20:00:00 10.2 10 Sur 31 Sur 0.4 921.8 -0.1 88
2019-04-24 19:00:00 10.1 9 Sur 36 Sudoeste 0.4 921.8 -0.4 87
2019-04-24 18:00:00 10.2 10 Sur 38 Sudoeste 0 921.7 -0.3 85
2019-04-24 17:00:00 10.4 14 Sudoeste 31 Sudoeste 0 921.9 0 82
2019-04-24 16:00:00 10.2 12 Sudoeste 35 Sudoeste 0 922.2 0.3 82
2019-04-24 15:00:00 10.7 13 Sudoeste 39 Sur 0 922 0 78
2019-04-24 14:00:00 9.9 13 Sur 37 Sudoeste 0 921.9 0.6 83
2019-04-24 13:00:00 9 15 Sur 39 Sudoeste 0 921.9 1.1 88
2019-04-24 12:00:00 8.4 12 Sur 39 Sur 0.2 922 1.3 91
2019-04-24 11:00:00 7.1 14 Sur 41 Sur 0.2 921.3 1.3 91
2019-04-24 10:00:00 6.2 17 Sur 37 Sur 0 920.8 1.3 91
2019-04-24 09:00:00 5.7 10 Sur 29 Sur 0 920.7 1.3 91
2019-04-24 08:00:00 5.2 12 Sur 28 Sudoeste 0 920 0.7 90
2019-04-24 07:00:00 5.1 8 Sur 22 Sudoeste 0 919.5 0.4 90
2019-04-24 06:00:00 4.8 6 Sur 22 Sur 0 919.4 0.4 90
2019-04-24 05:00:00 4.5 7 Sudoeste 17 Sudoeste 0 919.3 0.2 89
2019-04-24 04:00:00 4.2 6 Sur 19 Sudoeste 1.8 919.1 0.5 89
2019-04-24 03:00:00 4.1 4 Sur 15 Sudoeste 0 919 0.8 89
2019-04-24 02:00:00 4.1 5 Sudoeste 17 Sudoeste 0 919.1 1 89
2019-04-24 01:00:00 4.4 9 Oeste 19 Oeste 0.2 918.6 1.8 88
2019-04-24 00:00:00 4.3 6 Sudoeste 26 Oeste 0.6 918.2 2.1 88
2019-04-23 23:00:00 4.2 16 Oeste 33 Oeste 2.8 918.1 2.3 87
2019-04-23 22:00:00 4.4 3 Nordeste 20 Sudoeste 0 916.8 2 85
2019-04-23 21:00:00 4.4 6 Sudoeste 41 Oeste 0.8 916.1 1.8 84
2019-04-23 20:00:00 5.5 24 Oeste 45 Oeste 0.4 915.8 2 78
2019-04-23 19:00:00 9.5 13 Sudoeste 38 Sudoeste 0 914.8 1.2 68
2019-04-23 18:00:00 8.9 11 Oeste 34 Oeste 0.2 914.3 0.9 76
2019-04-23 17:00:00 7.4 14 Oeste 35 Sudoeste 2.2 913.8 0.4 81
2019-04-23 16:00:00 10.6 14 Sudoeste 38 Sudoeste 0.2 913.6 0 65
2019-04-23 15:00:00 11.2 13 Sudoeste 41 Sudoeste 0 913.4 0.4 60
2019-04-23 14:00:00 10.3 15 Sudoeste 35 Sudoeste 0 913.4 0.9 83
2019-04-23 13:00:00 8.6 13 Sudoeste 37 Sudoeste 0 913.6 1.4 88
2019-04-23 12:00:00 8.3 13 Sudoeste 34 Sudoeste 7.2 913 1.5 89
2019-04-23 11:00:00 8.9 12 Sur 33 Sur 1 912.5 1 89
2019-04-23 10:00:00 8.7 9 Sudoeste 39 Sudoeste 3.4 912.2 0.7 89
2019-04-23 09:00:00 9.2 12 Sur 35 Sudoeste 0.8 911.5 -0.6 89
2019-04-23 08:00:00 9.2 14 Sudoeste 31 Sudoeste 0 911.5 -1.1 88
2019-04-23 07:00:00 9.2 10 Sur 34 Sudoeste 0.6 911.5 -1.4 87
2019-04-23 06:00:00 9.5 12 Sudoeste 30 Sudoeste 0.2 912.1 -1.5 86
2019-04-23 05:00:00 9.7 10 Sur 37 Sudoeste 0 912.6 -1.7 84
2019-04-23 04:00:00 9.8 15 Sudoeste 34 Sudoeste 0 912.9 -1.4 83
2019-04-23 03:00:00 10 16 Sudoeste 39 Sudoeste 0 913.6 -0.7 81
2019-04-23 02:00:00 10.4 14 Sudoeste 33 Sudoeste 0 914.3 0 79
2019-04-23 01:00:00 10.5 15 Sudoeste 30 Sudoeste 0 914.3 0.3 77
2019-04-23 00:00:00 11 7 Sudoeste 18 Sudoeste 0 914.3 0.3 74
2019-04-22 23:00:00 11.1 3 Sur 14 Sur 0 914.3 0.1 78
2019-04-22 22:00:00 11.5 2 Noroeste 4 Este 0 914 -0.4 75
2019-04-22 21:00:00 12 3 Sur 8 Noroeste 0 914 -0.3 77
2019-04-22 20:00:00 13.3 7 Noroeste 14 Sudoeste 0 914.2 -0.3 69
2019-04-22 19:00:00 14.3 4 Sur 22 Sudoeste 0 914.4 -0.9 58
2019-04-22 18:00:00 15.8 9 Sudoeste 25 Sur 0 914.3 -1.7 54
2019-04-22 17:00:00 16.7 11 Sudoeste 30 Sudoeste 0 914.5 -1.9 52
2019-04-22 16:00:00 14.9 6 Sudoeste 25 Sudoeste 0 915.3 -1.6 59
2019-04-22 15:00:00 14.3 12 Sudoeste 24 Sudoeste 0 916 -1.1 63
2019-04-22 14:00:00 12.4 9 Sudoeste 23 Sudoeste 0 916.4 -0.7 71
2019-04-22 13:00:00 11.8 8 Sudoeste 17 Oeste 0 916.9 0 72
2019-04-22 12:00:00 10.3 7 Oeste 14 Sudoeste 0 917.1 0.4 77
2019-04-22 11:00:00 9.8 5 Sudoeste 15 Sudoeste 0 917.1 0.7 77
2019-04-22 10:00:00 8.8 9 Sudoeste 16 Sudoeste 0 916.9 0.8 81
2019-04-22 09:00:00 8 2 Norte 17 Norte 0 916.7 0.4 82
2019-04-22 08:00:00 7.6 12 Norte 26 Norte 0 916.4 -0.4 82
2019-04-22 07:00:00 7.4 12 Norte 27 Nordeste 0.2 916.1 -0.9 81
2019-04-22 06:00:00 7.6 16 Norte 33 Norte 0 916.3 -1.4 79
2019-04-22 05:00:00 7.7 9 Norte 38 Norte 0 916.8 -1.9 81
2019-04-22 04:00:00 7.7 13 Norte 31 Norte 0 917 -1.9 85
2019-04-22 03:00:00 7.8 16 Norte 31 Nordeste 0 917.7 -1.7 86
2019-04-22 02:00:00 8.2 15 Nordeste 29 Nordeste 0 918.7 -1.2 82
2019-04-22 01:00:00 8.3 14 Nordeste 30 Nordeste 0 918.9 -0.8 80
2019-04-22 00:00:00 8.4 13 Norte 34 Nordeste 0 919.4 -0.1 80
2019-04-21 23:00:00 8.5 17 Norte 36 Norte 0 919.9 0.7 79
2019-04-21 22:00:00 8.6 21 Nordeste 40 Norte 0 919.7 0.2 76
2019-04-21 21:00:00 9.3 18 Norte 36 Nordeste 0 919.5 -0.2 73
2019-04-21 20:00:00 9.6 19 Norte 41 Norte 0 919.2 -0.7 74
2019-04-21 19:00:00 9.6 20 Norte 38 Norte 0 919.5 -0.6 72
2019-04-21 18:00:00 9.8 19 Norte 35 Norte 0 919.7 -0.8 68
2019-04-21 17:00:00 10.2 15 Nordeste 45 Norte 0 919.9 -0.7 67
2019-04-21 16:00:00 10.9 19 Norte 32 Norte 0 920.1 -0.8 64
2019-04-21 15:00:00 10.2 15 Nordeste 31 Norte 0 920.5 -0.7 68
2019-04-21 14:00:00 10.5 15 Nordeste 37 Norte 0 920.6 -0.7 67
2019-04-21 13:00:00 10.4 14 Nordeste 40 Norte 0 920.9 -0.5 69
2019-04-21 12:00:00 10.3 21 Norte 38 Norte 0 921.2 -0.4 69
2019-04-21 11:00:00 9.5 14 Nordeste 32 Norte 0 921.3 -0.4 74
2019-04-21 10:00:00 7.9 13 Norte 31 Nordeste 0 921.4 -0.5 80
2019-04-21 09:00:00 7.3 15 Nordeste 33 Norte 0 921.6 -0.6 80
2019-04-21 08:00:00 7.1 19 Norte 39 Norte 0 921.7 -1.1 80
2019-04-21 07:00:00 7.1 17 Norte 33 Norte 0 921.9 -1.3 81
2019-04-21 06:00:00 7.5 18 Norte 36 Norte 0 922.2 -1.7 78
2019-04-21 05:00:00 7.8 20 Norte 41 Norte 0 922.8 -2.1 76
2019-04-21 04:00:00 8.2 21 Norte 40 Norte 0 923.2 -2.1 73
2019-04-21 03:00:00 8.6 22 Norte 41 Norte 0 923.9 -1.8 69
2019-04-21 02:00:00 9 22 Norte 40 Norte 0 924.9 -1.3 68
2019-04-21 01:00:00 9.3 16 Norte 40 Nordeste 0 925.3 -0.6 67
2019-04-21 00:00:00 9.5 15 Nordeste 36 Norte 0 925.7 -0.2 67
2019-04-20 23:00:00 9.6 18 Norte 35 Norte 0 926.2 0.7 69
2019-04-20 22:00:00 9.8 19 Nordeste 48 Nordeste 0 925.9 0.9 68
2019-04-20 21:00:00 10.3 22 Norte 37 Norte 0 925.9 1.2 63
2019-04-20 20:00:00 10.6 19 Norte 41 Norte 0 925.5 1.1 65
2019-04-20 19:00:00 11.1 16 Nordeste 51 Nordeste 0 925 0.5 68
2019-04-20 18:00:00 11.3 22 Nordeste 46 Nordeste 0 924.7 -0.1 69
2019-04-20 17:00:00 12 24 Nordeste 59 Norte 0 924.4 -0.4 67
2019-04-20 16:00:00 11.9 24 Norte 59 Norte 0 924.5 -0.2 68
2019-04-20 15:00:00 11.3 24 Norte 46 Norte 0 924.8 0.3 70
2019-04-20 14:00:00 11 19 Nordeste 42 Norte 0 924.8 0.5 71
2019-04-20 13:00:00 10.9 21 Norte 48 Nordeste 0 924.7 0.8 72
2019-04-20 12:00:00 10.6 21 Nordeste 43 Nordeste 0 924.5 0.7 72
2019-04-20 11:00:00 9.6 19 Norte 41 Norte 0 924.3 0.4 80
2019-04-20 10:00:00 8.6 20 Norte 43 Norte 0 923.9 -0.5 87
2019-04-20 09:00:00 8 22 Norte 40 Norte 0.4 923.8 -0.5 89
2019-04-20 08:00:00 7.8 21 Norte 37 Nordeste 3.2 923.9 -0.8 90
2019-04-20 07:00:00 7.8 19 Norte 48 Norte 4.8 924.4 -1.4 90
2019-04-20 06:00:00 7.7 23 Norte 48 Norte 1.8 924.3 -2.3 89
2019-04-20 05:00:00 7.5 22 Norte 47 Nordeste 0.6 924.7 -2.2 88
2019-04-20 04:00:00 7.8 18 Norte 36 Norte 0 925.8 -1.6 86
2019-04-20 03:00:00 7.8 17 Norte 45 Norte 0.2 926.6 -1.1 86
2019-04-20 02:00:00 7.6 15 Nordeste 34 Nordeste 0 926.9 -1 82
2019-04-20 01:00:00 7.3 16 Nordeste 31 Norte 0 927.4 -0.1 80
2019-04-20 00:00:00 7.2 13 Norte 31 Norte 0 927.7 0.6 77
2019-04-19 23:00:00 7.5 21 Norte 37 Nordeste 0 927.9 1.6 75
2019-04-19 22:00:00 8 17 Norte 30 Nordeste 0 927.5 2 73
2019-04-19 21:00:00 9.1 14 Norte 36 Norte 0 927.1 2.1 69
2019-04-19 20:00:00 11 17 Norte 42 Norte 0 926.3 1.3 67
2019-04-19 19:00:00 12.2 16 Nordeste 42 Nordeste 0 925.5 0.2 66
2019-04-19 18:00:00 13 18 Norte 37 Nordeste 0 925 -0.4 61
2019-04-19 17:00:00 13.6 14 Norte 25 Norte 0 925 -0.7 55
2019-04-19 16:00:00 15 6 Nordeste 16 Este 0 925.3 -1 52
2019-04-19 15:00:00 15.4 6 Este 19 Nordeste 0 925.4 -1 52
2019-04-19 14:00:00 14.7 6 Este 23 Nordeste 0 925.7 -0.5 53
2019-04-19 13:00:00 14.1 5 Nordeste 17 Este 0 926.3 0.4 59
2019-04-19 12:00:00 12.8 5 Este 18 Este 0 926.4 0.5 69
2019-04-19 11:00:00 11.2 4 Nordeste 16 Este 0 926.2 0.6 77
2019-04-19 10:00:00 9.1 3 Sudeste 10 Este 0 925.9 0.8 84
2019-04-19 09:00:00 8.4 3 Norte 8 Sudeste 0 925.9 0.9 88
2019-04-19 08:00:00 7.9 3 Sur 8 Sudeste 0 925.6 0.4 88
2019-04-19 07:00:00 7.9 6 Sudeste 11 Este 0 925.1 0 88
2019-04-19 06:00:00 7.8 3 Sur 10 Sudoeste 0 925 -0.4 87
2019-04-19 05:00:00 7.9 5 Sudoeste 14 Sudoeste 0 925.2 -0.4 87
2019-04-19 04:00:00 8 8 Sudoeste 15 Sudoeste 0 925.1 -0.5 86
2019-04-19 03:00:00 8 7 Sudoeste 15 Sudoeste 0 925.4 0.4 85
2019-04-19 02:00:00 8.6 7 Sur 16 Sur 0 925.6 0.7 85
2019-04-19 01:00:00 8.7 5 Sur 11 Sudoeste 0 925.6 0.8 83
2019-04-19 00:00:00 9.1 5 Oeste 16 Sudoeste 0 925 0.9 85
2019-04-18 23:00:00 9.5 4 Sur 17 Sudoeste 0 924.9 1.4 84
2019-04-18 22:00:00 9.9 4 Sur 13 Sudoeste 0 924.8 1.7 82
2019-04-18 21:00:00 10.2 7 Sudoeste 15 Sudoeste 0 924.1 1.5 79
2019-04-18 20:00:00 11.4 9 Sudoeste 19 Sudoeste 0 923.5 0.7 74
2019-04-18 19:00:00 12.3 6 Oeste 19 Sudoeste 0 923.1 0.2 74
2019-04-18 18:00:00 11.4 9 Oeste 22 Sudoeste 0 922.6 -1.1 76
2019-04-18 17:00:00 12.2 7 Sudoeste 17 Sudoeste 0 922.8 -1.1 72
2019-04-18 16:00:00 12.9 5 Oeste 12 Oeste 0 922.9 -1.5 76
2019-04-18 15:00:00 10.4 5 Sudeste 16 Este 0 923.7 -1.1 88
2019-04-18 14:00:00 9.5 5 Sudeste 17 Este 0 923.9 -1 89
2019-04-18 13:00:00 8.4 8 Sudeste 26 Sudeste 0.2 924.4 -0.4 90
2019-04-18 12:00:00 8.3 9 Sudeste 28 Sudeste 0.6 924.8 -0.1 89
2019-04-18 11:00:00 8.2 10 Este 23 Este 2.8 924.9 0.7 89
2019-04-18 10:00:00 8.9 7 Sudeste 19 Sur 2.4 924.8 1.1 89
2019-04-18 09:00:00 9.4 6 Sudeste 17 Sur 1 924.9 1 88
2019-04-18 08:00:00 9.7 5 Sur 16 Sudoeste 1.4 924.2 0.1 88
2019-04-18 07:00:00 10.1 9 Sudoeste 17 Oeste 3.2 923.7 -0.8 87
2019-04-18 06:00:00 10.6 4 Sur 9 Sudoeste 2 923.9 -1.6 87
2019-04-18 05:00:00 10.5 3 Sur 9 Nordeste 0 924.1 -1.8 86
2019-04-18 04:00:00 10.7 3 Sudeste 24 Sudoeste 3 924.5 -2 85
2019-04-18 03:00:00 11.4 4 Sudeste 11 Sur 0.2 925.5 -1.1 83
2019-04-18 02:00:00 11.7 4 Sudoeste 13 Sur 0 925.9 0 80
2019-04-18 01:00:00 12.4 5 Sur 19 Sudoeste 0 926.5 1.7 77
2019-04-18 00:00:00 13.5 8 Sudoeste 27 Sudoeste 0 926.6 2.1 71
2019-04-17 23:00:00 14.2 9 Sudoeste 27 Sudoeste 0 925.9 2.9 63
2019-04-17 22:00:00 15.1 6 Sur 34 Sudoeste 0 924.8 2.5 62
2019-04-17 21:00:00 15.9 10 Sudoeste 34 Sudoeste 0 924.5 3.4 55
2019-04-17 20:00:00 17.2 15 Sudoeste 43 Sudoeste 0 923 2.4 50
2019-04-17 19:00:00 19.2 17 Sudoeste 42 Sudoeste 0 922.3 1.1 43
2019-04-17 18:00:00 22.1 14 Sur 30 Sur 0 921.1 -1 40
2019-04-17 17:00:00 25 13 Sur 32 Sur 0 920.6 -2.2 27
2019-04-17 16:00:00 25.5 13 Sudeste 31 Sudeste 0 921.2 -2.6 25
2019-04-17 15:00:00 24 8 Sudeste 24 Sudeste 0 922.1 -2.2 30
2019-04-17 14:00:00 22.8 6 Este 19 Este 0 922.8 -1.6 32
2019-04-17 13:00:00 20.9 4 Sudeste 17 Este 0 923.8 -0.4 36
2019-04-17 12:00:00 20 6 Sudeste 14 Este 0 924.3 -0.1 39
2019-04-17 11:00:00 17.9 5 Sudeste 13 Este 0 924.4 -0.4 45
2019-04-17 10:00:00 14.5 3 Norte 13 Este 0 924.2 -0.6 61
2019-04-17 09:00:00 11.7 3 Norte 9 Nordeste 0 924.4 -0.7 68
2019-04-17 08:00:00 10.5 5 Nordeste 9 Nordeste 0 924.8 -0.4 67
2019-04-17 07:00:00 10.9 5 Este 12 Este 0 924.8 -1 65
2019-04-17 06:00:00 11 3 Norte 8 Nordeste 0 925.1 -1.2 63
2019-04-17 05:00:00 11.6 2 Nordeste 15 Este 0 925.2 -1.5 60
2019-04-17 04:00:00 12.5 8 Este 16 Este 0 925.8 -0.7 58
2019-04-17 03:00:00 13.4 3 Este 7 Este 0 926.3 -0.1 54
2019-04-17 02:00:00 13.8 3 Norte 6 Norte 0 926.7 0.1 53
2019-04-17 01:00:00 14.6 3 Sur 13 Sudeste 0 926.5 0.2 51
2019-04-17 00:00:00 15.5 5 Sudeste 8 Sudeste 0 926.4 0.5 50
2019-04-16 23:00:00 16.5 4 Sur 9 Sur 0 926.6 0.9 43
2019-04-16 22:00:00 18 5 Sur 13 Sudoeste 0 926.3 0.4 38
2019-04-16 21:00:00 19.7 8 Oeste 15 Oeste 0 925.9 -0.4 32
2019-04-16 20:00:00 23.1 5 Sudoeste 13 Sudoeste 0 925.7 -1.2 28
2019-04-16 19:00:00 23 4 Sur 19 Sur 0 925.9 -1.7 27
2019-04-16 18:00:00 23.4 5 Sudoeste 17 Sur 0 926.3 -2.4 25
2019-04-16 17:00:00 22.9 4 Sudeste 17 Sudeste 0 926.9 -2 26
2019-04-16 16:00:00 22.5 5 Sudeste 13 Sudeste 0 927.6 -2.2 23
2019-04-16 15:00:00 21.7 5 Sur 19 Sur 0 928.7 -1.6 20
2019-04-16 14:00:00 19.4 4 Nordeste 20 Norte 0 928.9 -1.4 30
2019-04-16 13:00:00 18.6 4 Sudeste 17 Este 0 929.8 -0.3 40
2019-04-16 12:00:00 16.6 5 Norte 21 Sudeste 0 930.3 0.2 44
2019-04-16 11:00:00 14.6 7 Sudeste 18 Este 0 930.3 0.9 62
2019-04-16 10:00:00 11.4 3 Este 9 Este 0 930.1 0.6 77
2019-04-16 09:00:00 9.1 2 Norte 12 Este 0 930.1 0.7 80
2019-04-16 08:00:00 8.8 4 Nordeste 11 Nordeste 0 929.4 -0.4 75
2019-04-16 07:00:00 8.9 3 Norte 8 Nordeste 0 929.5 -0.3 74
2019-04-16 06:00:00 9.4 5 Nordeste 9 Norte 0 929.4 -0.5 70
2019-04-16 05:00:00 10.1 3 Norte 10 Oeste 0 929.8 0 67
2019-04-16 04:00:00 11 5 Sudoeste 12 Oeste 0 929.8 0.1 64
2019-04-16 03:00:00 11.6 5 Sudoeste 10 Oeste 0 929.9 0.5 60
2019-04-16 02:00:00 12.4 4 Noroeste 28 Noroeste 0 929.8 1.1 58
2019-04-16 01:00:00 13.1 15 Oeste 26 Noroeste 0 929.7 2 61
2019-04-16 00:00:00 14 15 Noroeste 32 Noroeste 0 929.4 2.9 62
2019-04-15 23:00:00 15.1 16 Noroeste 31 Noroeste 0 928.7 2.9 60
2019-04-15 22:00:00 16.8 16 Noroeste 33 Noroeste 0 927.7 2.4 49
2019-04-15 21:00:00 17.9 13 Sudoeste 40 Sudoeste 0 926.5 1.5 38
2019-04-15 20:00:00 20.2 17 Sudoeste 46 Sudoeste 0 925.8 0.8 28
2019-04-15 19:00:00 22.5 18 Sudoeste 48 Sur 0 925.3 -0.1 24
2019-04-15 18:00:00 23.4 16 Sudoeste 44 Sudoeste 0 925 -0.7 27
2019-04-15 17:00:00 23.5 19 Sudoeste 51 Sur 0 925 -1.2 25
2019-04-15 16:00:00 24 21 Sudoeste 53 Sudoeste 0 925.4 -1.2 24
2019-04-15 15:00:00 23.3 20 Sudoeste 40 Sudoeste 0 925.7 -1.1 27
2019-04-15 14:00:00 21.7 12 Sudoeste 32 Sudoeste 0 926.2 -0.2 36
2019-04-15 13:00:00 20.6 13 Sudoeste 32 Sudoeste 0 926.6 0.8 41
2019-04-15 12:00:00 19.3 8 Sur 18 Sur 0 926.8 0.9 51
2019-04-15 11:00:00 18.6 7 Sur 17 Sur 0 926.4 0.3 54
2019-04-15 10:00:00 15.3 3 Noroeste 6 Noroeste 0 925.8 -0.2 65
2019-04-15 09:00:00 13.1 3 Noroeste 6 Noroeste 0 925.9 -0.3 71
2019-04-15 08:00:00 12.5 4 Noroeste 6 Noroeste 0 926.1 -0.7 73
2019-04-15 07:00:00 12.7 4 Nordeste 7 Este 0 926 -1.2 74
2019-04-15 06:00:00 12.9 3 Nordeste 8 Este 0 926.2 -1.5 74
2019-04-15 05:00:00 13 3 Norte 5 Nordeste 0 926.8 -1.4 73
2019-04-15 04:00:00 13.3 0 Calma 6 Norte 0 927.2 -1.2 73
2019-04-15 03:00:00 14.2 2 Noroeste 6 Este 0 927.7 -0.9 69
2019-04-15 02:00:00 14.6 3 Nordeste 6 Nordeste 0 928.2 -0.7 67
2019-04-15 01:00:00 15.3 4 Norte 5 Norte 0 928.4 -0.3 64
2019-04-15 00:00:00 16.2 3 Norte 6 Norte 0 928.6 0.3 60
2019-04-14 23:00:00 16.6 3 Norte 6 Oeste 0 928.9 0.9 57
2019-04-14 22:00:00 17.2 5 Oeste 14 Sudoeste 0 928.7 0.9 54
2019-04-14 21:00:00 18.5 8 Sudoeste 19 Sudoeste 0 928.3 0.3 49
2019-04-14 20:00:00 21.5 9 Sudoeste 23 Sudoeste 0 928 -0.3 42
2019-04-14 19:00:00 22.2 9 Sur 25 Sur 0 927.8 -1.3 41
2019-04-14 18:00:00 23 9 Sudoeste 26 Sudoeste 0 928 -1.5 38
2019-04-14 17:00:00 23 8 Sur 27 Sur 0 928.3 -1.6 38
2019-04-14 16:00:00 22.8 10 Sur 25 Sur 0 929.1 -1.3 39
2019-04-14 15:00:00 21.8 10 Sur 26 Sur 0 929.5 -1.1 37
2019-04-14 14:00:00 20.2 10 Sur 26 Sur 0 929.9 -1 39
2019-04-14 13:00:00 19 9 Sur 20 Sur 0 930.4 -0.2 43
2019-04-14 12:00:00 17 8 Sur 17 Sur 0 930.6 0.1 50
2019-04-14 11:00:00 14.5 3 Sur 10 Sur 0 930.9 0.6 58
2019-04-14 10:00:00 11.3 3 Nordeste 7 Norte 0 930.6 0.6 67
2019-04-14 09:00:00 8.9 0 Calma 4 Este 0 930.5 0.3 75
2019-04-14 08:00:00 7.9 3 Norte 6 Noroeste 0 930.3 0 73
2019-04-14 07:00:00 8.2 4 Nordeste 6 Este 0 930 -0.6 73
2019-04-14 06:00:00 9 2 Norte 11 Sudeste 0 930.2 -0.4 68
2019-04-14 05:00:00 9.8 3 Norte 8 Sudoeste 0 930.3 -0.7 64
2019-04-14 04:00:00 10.4 2 Sudoeste 8 Sudoeste 0 930.6 -0.7 63
2019-04-14 03:00:00 11.3 4 Sudoeste 8 Sur 0 930.6 -0.9 58
2019-04-14 02:00:00 12 6 Sur 13 Oeste 0 931 -0.4 57
2019-04-14 01:00:00 13.2 9 Oeste 14 Oeste 0 931.3 0.4 51
2019-04-14 00:00:00 13.5 8 Oeste 12 Oeste 0 931.5 1.3 48
2019-04-13 23:00:00 14.2 8 Oeste 18 Sudoeste 0 931.4 1.8 42
2019-04-13 22:00:00 15.1 9 Sudoeste 19 Sudoeste 0 930.9 1.6 39
2019-04-13 21:00:00 16.4 9 Sudoeste 21 Sudoeste 0 930.2 0.9 37
2019-04-13 20:00:00 19.8 9 Sudoeste 25 Sur 0 929.6 0.2 32
2019-04-13 19:00:00 20.3 9 Sur 27 Sur 0 929.3 -0.6 31
2019-04-13 18:00:00 20.3 11 Sur 26 Sur 0 929.3 -1 33
2019-04-13 17:00:00 20.5 10 Sudoeste 26 Sur 0 929.4 -1.3 31
2019-04-13 16:00:00 20.6 8 Sur 27 Sur 0 929.9 -1.2 34
2019-04-13 15:00:00 19.5 8 Sur 22 Sur 0 930.3 -1.1 36
2019-04-13 14:00:00 18 8 Sur 22 Sur 0 930.7 -0.7 43
2019-04-13 13:00:00 17.1 6 Sur 19 Sur 0 931.1 0 43
2019-04-13 12:00:00 15.3 8 Sur 18 Sur 0 931.4 0.6 49
2019-04-13 11:00:00 13.3 6 Sudeste 13 Sur 0 931.4 1.2 56
2019-04-13 10:00:00 9.8 3 Norte 5 Norte 0 931.1 1.4 62
2019-04-13 09:00:00 7.8 2 Sur 7 Sudeste 0 930.8 1.3 70
2019-04-13 08:00:00 7.1 2 Noroeste 5 Oeste 0 930.2 1 62
2019-04-13 07:00:00 7.7 4 Sur 8 Sur 0 929.7 0.4 64
2019-04-13 06:00:00 8.3 4 Sudeste 11 Sudeste 0 929.5 -0.1 58
2019-04-13 05:00:00 9 4 Este 8 Este 0 929.2 -0.8 53
2019-04-13 04:00:00 10.1 3 Noroeste 19 Noroeste 0 929.3 -0.6 48
2019-04-13 03:00:00 10.7 9 Noroeste 18 Noroeste 0 929.6 0 44
2019-04-13 02:00:00 10.4 8 Norte 22 Noroeste 0 930 0.6 47
2019-04-13 01:00:00 10.8 8 Noroeste 24 Oeste 0 929.9 0.8 47
2019-04-13 00:00:00 11.4 10 Oeste 18 Oeste 0 929.6 1.1 45
2019-04-12 23:00:00 11.5 3 Noroeste 8 Oeste 0 929.4 1.2 43
2019-04-12 22:00:00 12.6 3 Sudoeste 9 Sudoeste 0 929.1 1 48
2019-04-12 21:00:00 14.2 2 Sudoeste 16 Noroeste 0 928.5 0.4 36
2019-04-12 20:00:00 17.2 9 Noroeste 24 Noroeste 0 928.2 -0.1 27
2019-04-12 19:00:00 17.6 11 Noroeste 27 Oeste 0 928.1 -0.8 26
2019-04-12 18:00:00 18.4 7 Norte 20 Norte 0 928.1 -1.4 27
2019-04-12 17:00:00 18 8 Noroeste 26 Oeste 0 928.3 -1.3 31
2019-04-12 16:00:00 18.1 4 Norte 14 Sudeste 0 928.9 -1 33
2019-04-12 15:00:00 16.5 4 Sudeste 18 Este 0 929.5 -0.7 37
2019-04-12 14:00:00 14.9 9 Sur 21 Sur 0 929.6 -0.6 44
2019-04-12 13:00:00 14.3 10 Norte 26 Norte 0 929.9 0.1 38
2019-04-12 12:00:00 12.8 10 Norte 24 Nordeste 0 930.2 0.6 45
2019-04-12 11:00:00 10.9 11 Nordeste 28 Nordeste 0 930.2 0.9 49
2019-04-12 10:00:00 8.4 13 Nordeste 21 Norte 0 929.8 0.9 58
2019-04-12 09:00:00 6.7 8 Nordeste 16 Nordeste 0 929.6 0.8 62
2019-04-12 08:00:00 6.3 11 Norte 18 Norte 0 929.3 0.3 60
2019-04-12 07:00:00 6.3 12 Norte 19 Nordeste 0 928.9 -0.2 60
2019-04-12 06:00:00 5.9 10 Nordeste 17 Nordeste 0 928.8 -0.5 63
2019-04-12 05:00:00 6.6 6 Nordeste 19 Norte 0 929 -0.5 62
2019-04-12 04:00:00 7.7 11 Nordeste 21 Norte 0 929.1 -0.3 56
2019-04-12 03:00:00 7.8 10 Norte 17 Norte 0 929.3 -0.1 58
2019-04-12 02:00:00 8.4 4 Nordeste 13 Norte 0 929.5 -0.1 56
2019-04-12 01:00:00 8.8 6 Noroeste 10 Norte 0 929.4 0.2 51
2019-04-12 00:00:00 7.9 3 Noroeste 9 Norte 0 929.4 0.4 58
2019-04-11 23:00:00 8.5 4 Oeste 11 Sudoeste 0 929.6 1.1 56
2019-04-11 22:00:00 9.1 5 Noroeste 10 Noroeste 0 929.2 0.9 55
2019-04-11 21:00:00 10 8 Norte 29 Nordeste 0 929 0.6 55
2019-04-11 20:00:00 12.5 6 Norte 17 Norte 0 928.5 0.2 44
2019-04-11 19:00:00 12.9 9 Norte 23 Norte 0 928.3 -0.4 42
2019-04-11 18:00:00 13.8 13 Norte 40 Norte 0 928.4 -0.6 39
2019-04-11 17:00:00 14.6 12 Norte 31 Norte 0 928.3 -1 37
2019-04-11 16:00:00 13.5 11 Norte 30 Nordeste 0 928.7 -0.8 42
2019-04-11 15:00:00 13.9 15 Norte 29 Norte 0 929 -0.8 42
2019-04-11 14:00:00 13.5 15 Norte 31 Norte 0 929.3 -0.2 53
2019-04-11 13:00:00 11.6 18 Nordeste 31 Norte 0 929.5 0.1 53
2019-04-11 12:00:00 11.1 12 Norte 27 Norte 0 929.8 0.5 59
2019-04-11 11:00:00 9.3 10 Nordeste 29 Norte 0 929.5 0.8 65
2019-04-11 10:00:00 6.9 12 Nordeste 24 Nordeste 0 929.4 1.1 77
2019-04-11 09:00:00 4.5 5 Norte 17 Norte 0 929.3 1.2 88
2019-04-11 08:00:00 3.8 4 Norte 9 Este 0 928.7 0.6 88
2019-04-11 07:00:00 4 4 Nordeste 11 Nordeste 0 928.3 0.4 88
2019-04-11 06:00:00 4.3 3 Nordeste 7 Este 0 928.1 0.1 88
2019-04-11 05:00:00 4.3 4 Norte 9 Sudeste 0 928.1 0 87
2019-04-11 04:00:00 4.7 4 Sur 9 Este 0 927.9 -0.3 86
2019-04-11 03:00:00 5.5 6 Sudeste 11 Sudeste 0 928 -0.1 85
2019-04-11 02:00:00 6.1 6 Sudeste 11 Nordeste 0 928.1 0.2 83
2019-04-11 01:00:00 6.7 6 Sudeste 9 Norte 0 928.2 0.3 81
2019-04-11 00:00:00 7.1 2 Oeste 19 Noroeste 0 928.1 1.5 79
2019-04-10 23:00:00 6.8 14 Noroeste 33 Noroeste 0 927.9 1.5 82
2019-04-10 22:00:00 6.3 11 Noroeste 25 Norte 0 927.9 2.7 86
2019-04-10 21:00:00 5.9 10 Norte 19 Norte 0 926.6 1.5 86
2019-04-10 20:00:00 6.3 11 Nordeste 83 Norte 1 926.4 1.1 83
2019-04-10 19:00:00 12.6 10 Sudoeste 25 Sur 0 925.2 -0.9 56
2019-04-10 18:00:00 12.6 11 Sur 30 Sudoeste 0 925.1 -1.4 65
2019-04-10 17:00:00 13.1 12 Sudoeste 33 Sudoeste 0 925.3 -1.5 53
2019-04-10 16:00:00 12.4 12 Oeste 28 Oeste 0 926.1 -0.9 56
2019-04-10 15:00:00 12.3 9 Oeste 24 Sur 0 926.5 -0.8 61
2019-04-10 14:00:00 11.5 10 Sudoeste 23 Sudoeste 0 926.8 -0.6 69
2019-04-10 13:00:00 9.8 11 Sudoeste 24 Sudoeste 0 927 -0.2 69
2019-04-10 12:00:00 8.3 10 Sudoeste 26 Sudoeste 0 927.3 0.2 79
2019-04-10 11:00:00 7.4 10 Oeste 23 Oeste 0 927.4 0.8 79
2019-04-10 10:00:00 6.6 8 Oeste 17 Oeste 0 927.2 0.7 84
2019-04-10 09:00:00 6 7 Sudoeste 21 Noroeste 0 927.1 0.8 85
2019-04-10 08:00:00 5.3 7 Oeste 22 Noroeste 0 926.6 0 86
2019-04-10 07:00:00 5 7 Sudoeste 24 Oeste 0 926.5 -0.3 87
2019-04-10 06:00:00 5.2 9 Oeste 18 Oeste 0 926.3 -0.8 87
2019-04-10 05:00:00 6 7 Sudoeste 18 Oeste 0 926.6 -0.8 87
2019-04-10 04:00:00 6.1 7 Sudoeste 15 Sudoeste 0 926.8 -0.7 88
2019-04-10 03:00:00 6.2 8 Sudoeste 13 Sudoeste 0 927.1 -0.3 88
2019-04-10 02:00:00 6.7 4 Sur 14 Sudoeste 0 927.4 0.1 87
2019-04-10 01:00:00 6.8 8 Sudoeste 13 Sudoeste 0 927.5 0.6 87
2019-04-10 00:00:00 6.7 7 Sur 15 Sudoeste 0 927.4 1.1 86
2019-04-09 23:00:00 7 9 Sudoeste 18 Sudoeste 0 927.3 1.5 85
2019-04-09 22:00:00 7.6 6 Sur 26 Oeste 0 926.9 0.8 83
2019-04-09 21:00:00 8.1 7 Sur 34 Oeste 0 926.3 0.8 82
2019-04-09 20:00:00 8.9 10 Oeste 35 Noroeste 0.2 925.8 -0.2 79
2019-04-09 19:00:00 9.4 22 Noroeste 48 Oeste 0.8 926.1 -0.4 80
2019-04-09 18:00:00 11.9 10 Sur 34 Sudoeste 0 925.5 -1.5 74
2019-04-09 17:00:00 10.4 15 Oeste 33 Sudoeste 0 926 -0.9 75
2019-04-09 16:00:00 10.5 14 Sudoeste 30 Oeste 0 926.5 -1 80
2019-04-09 15:00:00 7.6 17 Oeste 45 Noroeste 2 927 -1 80
2019-04-09 14:00:00 10.6 12 Sur 36 Sudoeste 0 926.9 -1.2 76
2019-04-09 13:00:00 9.5 10 Sudoeste 26 Sudoeste 0 927.5 -0.8 79
2019-04-09 12:00:00 8.5 8 Oeste 23 Sudoeste 0 928 0 87
2019-04-09 11:00:00 7.4 7 Sudoeste 19 Sur 0 928.1 0.4 90
2019-04-09 10:00:00 6.4 6 Sudoeste 16 Sudoeste 0 928.3 0.8 90
2019-04-09 09:00:00 5.9 7 Sur 16 Sudoeste 0 928 0.6 90
2019-04-09 08:00:00 5.2 8 Sudoeste 13 Sudoeste 0 927.7 0.4 90
2019-04-09 07:00:00 5.4 7 Sudoeste 11 Sudoeste 0 927.5 0.2 89
2019-04-09 06:00:00 5.8 4 Sudoeste 10 Sur 0 927.4 0.2 89
2019-04-09 05:00:00 5.6 6 Sudoeste 12 Sudoeste 0 927.3 0.3 88
2019-04-09 04:00:00 6.1 4 Sur 16 Sudoeste 0 927.3 0.3 88
2019-04-09 03:00:00 6.3 8 Oeste 23 Noroeste 0 927.2 0.2 88
2019-04-09 02:00:00 7.3 9 Oeste 17 Noroeste 0 927 0.8 89
2019-04-09 01:00:00 8.3 6 Noroeste 19 Sudoeste 0 927 0.9 90
2019-04-09 00:00:00 8.2 7 Sudoeste 20 Sudoeste 0 927 1.4 90
2019-04-08 23:00:00 8.2 4 Sudoeste 35 Sudoeste 2.4 926.2 0.8 89
2019-04-08 22:00:00 10 20 Sudoeste 45 Sudoeste 0.2 926.1 1 90
2019-04-08 21:00:00 9.9 12 Sudoeste 30 Sudoeste 0.4 925.6 0.1 89
2019-04-08 20:00:00 10.2 11 Sur 46 Sudoeste 2.4 925.4 -0.3 88
2019-04-08 19:00:00 11.2 10 Sudoeste 30 Sur 0 925.1 -1.2 87
2019-04-08 18:00:00 11.7 13 Sudoeste 35 Sudoeste 0 925.5 -1.2 86
2019-04-08 17:00:00 12.4 10 Sur 28 Sudoeste 0.2 925.7 -1.2 87
2019-04-08 16:00:00 11.7 11 Sudoeste 37 Sudoeste 1.6 926.3 -0.7 88
2019-04-08 15:00:00 11 13 Sudoeste 36 Sudoeste 0.2 926.7 -0.5 87
2019-04-08 14:00:00 11.3 12 Sudoeste 33 Sudoeste 0.6 926.9 -0.1 88
2019-04-08 13:00:00 10.7 17 Sudoeste 31 Sudoeste 1.6 927 0.1 87
2019-04-08 12:00:00 11.2 11 Sudoeste 25 Sudoeste 0 927.2 0.3 88
2019-04-08 11:00:00 10.3 10 Sudoeste 27 Sudoeste 0 927 0.5 90
2019-04-08 10:00:00 9.4 12 Sudoeste 28 Sudoeste 0 926.9 0.8 90
2019-04-08 09:00:00 9.1 11 Sudoeste 32 Sudoeste 0 926.9 0.9 91
2019-04-08 08:00:00 8.8 12 Sudoeste 23 Sur 0 926.5 0.1 91
2019-04-08 07:00:00 8.8 10 Sudoeste 32 Sudoeste 1.6 926.1 -0.5 91
2019-04-08 06:00:00 9.1 16 Sudoeste 30 Sudoeste 1.4 926 -1 91
2019-04-08 05:00:00 9.1 9 Sudoeste 19 Sudoeste 0.8 926.4 -0.8 91
2019-04-08 04:00:00 9 7 Sur 16 Sudoeste 0 926.6 -0.7 90
2019-04-08 03:00:00 9.1 7 Sudoeste 18 Sudoeste 0.2 927 -0.1 90
2019-04-08 02:00:00 9 7 Sudoeste 17 Oeste 0 927.2 0.3 90
2019-04-08 01:00:00 8.8 8 Sudoeste 14 Sudoeste 0.6 927.3 0.6 90
2019-04-08 00:00:00 8.8 4 Sur 12 Sur 0.6 927.1 0.5 89
2019-04-07 23:00:00 8.7 5 Sur 17 Sur 0.2 926.9 0.4 89
2019-04-07 22:00:00 8.6 8 Sur 14 Sudoeste 0.2 926.7 0.6 88
2019-04-07 21:00:00 8.5 8 Sur 20 Sur 0 926.6 0.7 86
2019-04-07 20:00:00 9 8 Sur 22 Sudoeste 0 926.5 0.6 82
2019-04-07 19:00:00 9.3 5 Sudoeste 17 Sudoeste 0 926.1 0.1 81
2019-04-07 18:00:00 9.8 9 Sudoeste 23 Oeste 0 925.9 -0.1 74
2019-04-07 17:00:00 10.3 14 Oeste 31 Sudoeste 0 925.9 -0.2 73
2019-04-07 16:00:00 10.3 12 Sudoeste 28 Oeste 0 926 0.1 79
2019-04-07 15:00:00 9.9 9 Sur 22 Sudoeste 0 926 0.7 79
2019-04-07 14:00:00 8.9 10 Sudoeste 24 Sur 0.4 926.1 1.2 84
2019-04-07 13:00:00 8.3 12 Sur 26 Sudoeste 0 925.9 1.4 82
2019-04-07 12:00:00 7.5 10 Sudoeste 24 Sudoeste 0 925.3 1.6 87
2019-04-07 11:00:00 5.9 11 Oeste 35 Noroeste 0 924.9 2.3 88
2019-04-07 10:00:00 5.5 5 Sudoeste 15 Sudoeste 0.2 924.5 2.8 89
2019-04-07 09:00:00 5 5 Sur 21 Oeste 0 923.7 2.4 89
2019-04-07 08:00:00 4.8 7 Oeste 35 Sudoeste 0 922.6 1.6 89
2019-04-07 07:00:00 4.9 14 Oeste 35 Oeste 0.4 921.7 0.7 89
2019-04-07 06:00:00 4.9 15 Oeste 37 Sudoeste 0.4 921.3 0.3 89
2019-04-07 05:00:00 4.9 17 Sudoeste 42 Sudoeste 0.2 921 -0.2 89
2019-04-07 04:00:00 4.8 10 Sudoeste 34 Sudoeste 0 921 -0.4 89
2019-04-07 03:00:00 4.6 12 Sudoeste 27 Sudoeste 0 921 -0.2 89
2019-04-07 02:00:00 4.4 15 Sudoeste 28 Sudoeste 0.2 921.2 0.4 88
2019-04-07 01:00:00 4 7 Oeste 25 Sudoeste 0 921.4 0.9 88
2019-04-07 00:00:00 4.2 13 Sudoeste 27 Sudoeste 0 921.2 1.2 88
2019-04-06 23:00:00 4.8 10 Sudoeste 27 Sudoeste 0 920.8 1.3 87
2019-04-06 22:00:00 5.2 12 Sudoeste 27 Sudoeste 0 920.5 1.6 87
2019-04-06 21:00:00 5.4 9 Sudoeste 17 Sudoeste 0.2 920 1.8 85
2019-04-06 20:00:00 6.3 5 Sur 24 Oeste 0 919.5 1.6 81
2019-04-06 19:00:00 5.8 11 Oeste 43 Noroeste 0 918.9 0.6 82
2019-04-06 18:00:00 5.9 9 Oeste 26 Oeste 1.6 918.2 -0.6 84
2019-04-06 17:00:00 7.4 12 Sudoeste 33 Oeste 0 917.9 -0.3 82
2019-04-06 16:00:00 6.2 12 Sudoeste 37 Oeste 0.2 918.3 -0.6 85
2019-04-06 15:00:00 6.4 16 Oeste 39 Sur 1.6 918.8 -0.3 85
2019-04-06 14:00:00 7.9 17 Sur 39 Sur 0 918.2 -0.7 78
2019-04-06 13:00:00 6.8 15 Sudoeste 39 Sudoeste 0 918.9 0.3 89
2019-04-06 12:00:00 5.2 15 Sudoeste 39 Sudoeste 0.4 919.1 0.5 90
2019-04-06 11:00:00 5 13 Sudoeste 36 Sur 0.2 918.9 0.8 90
2019-04-06 10:00:00 4.6 13 Sur 32 Sudoeste 1 918.6 0.9 90
2019-04-06 09:00:00 4.1 9 Sudoeste 31 Sudoeste 0.8 918.6 1.3 90
2019-04-06 08:00:00 4 12 Sudoeste 30 Sudoeste 0.6 918.1 1.1 90
2019-04-06 07:00:00 3.8 13 Sudoeste 31 Sudoeste 1.2 917.7 0.5 90
2019-04-06 06:00:00 3.6 9 Sudoeste 25 Sudoeste 0.6 917.3 0 89
2019-04-06 05:00:00 3.7 10 Sudoeste 28 Sudoeste 0.6 917 -0.4 89
2019-04-06 04:00:00 3.9 10 Sudoeste 27 Sudoeste 0.2 917.2 0.1 89
2019-04-06 03:00:00 3.9 14 Sudoeste 29 Sudoeste 0 917.3 0.7 89
2019-04-06 02:00:00 3.8 10 Sudoeste 20 Oeste 0.6 917.4 1.4 88
2019-04-06 01:00:00 3.8 10 Sudoeste 30 Oeste 0.2 917.1 1.6 87
2019-04-06 00:00:00 4.1 15 Oeste 32 Sudoeste 0.6 916.6 1.7 85
2019-04-05 23:00:00 5 12 Sudoeste 34 Sudoeste 0 916 1.5 83
2019-04-05 22:00:00 4.1 5 Sudoeste 15 Sudoeste 0 915.5 1.7 82
2019-04-05 21:00:00 5.1 4 Sudoeste 16 Sudoeste 0 914.9 1.6 82
2019-04-05 20:00:00 6.7 9 Sudoeste 32 Sur 0 914.5 1.9 85
2019-04-05 19:00:00 6.6 12 Sudoeste 26 Sudoeste 0.2 913.8 0.5 86
2019-04-05 18:00:00 5.5 9 Sudoeste 31 Sur 2 913.3 -0.7 86
2019-04-05 17:00:00 7.2 9 Sur 26 Noroeste 0 912.6 -0.8 85
2019-04-05 16:00:00 6.7 8 Sudoeste 28 Oeste 0.8 913.3 -0.4 89
2019-04-05 15:00:00 4.6 19 Oeste 45 Oeste 6.6 914 -0.5 87
2019-04-05 14:00:00 6.3 11 Sur 33 Sudeste 0.8 913.4 -0.8 89
2019-04-05 13:00:00 6 14 Sur 36 Sur 0.2 913.7 -0.3 89
2019-04-05 12:00:00 5.6 17 Sur 39 Sudoeste 3.4 914.5 0.4 88
2019-04-05 11:00:00 6 12 Sur 36 Sudoeste 3.4 914.2 -0.2 87
2019-04-05 10:00:00 6.1 8 Sur 28 Sur 0.6 914 -0.6 84
2019-04-05 09:00:00 5.9 10 Sur 23 Sur 0 914.1 -0.4 78
2019-04-05 08:00:00 5.6 9 Sur 21 Sur 0 914.4 -0.5 80
2019-04-05 07:00:00 5.6 9 Sudoeste 28 Sudoeste 0 914.6 -0.6 75
2019-04-05 06:00:00 5.9 9 Sur 26 Sudoeste 0 914.5 -1.1 74
2019-04-05 05:00:00 6 13 Sudoeste 31 Sudoeste 0 914.9 -0.5 73
2019-04-05 04:00:00 6.3 10 Sudoeste 26 Sudoeste 0 915.2 -0.1 71
2019-04-05 03:00:00 6 13 Sudoeste 35 Sudoeste 0 915.6 0.6 70
2019-04-05 02:00:00 6.5 17 Sudoeste 38 Sudoeste 0 915.4 0.3 65
2019-04-05 01:00:00 7.5 15 Sudoeste 39 Sudoeste 0 915.3 0.4 53
2019-04-05 00:00:00 8.6 15 Sudoeste 32 Sudoeste 0 915 0.6 46
2019-04-04 23:00:00 9.2 10 Sudoeste 22 Sudoeste 0 915.1 0.7 41
2019-04-04 22:00:00 10.1 11 Sudoeste 26 Sudoeste 0 914.9 0.7 39
2019-04-04 21:00:00 11.4 12 Sudoeste 24 Sudoeste 0 914.4 0.2 35
2019-04-04 20:00:00 14.3 13 Sudoeste 31 Sur 0 914.4 -0.1 28
2019-04-04 19:00:00 15.4 15 Sur 31 Sur 0 914.2 -0.8 25
2019-04-04 18:00:00 16.6 12 Sur 29 Sur 0 914.2 -1.4 26
2019-04-04 17:00:00 17 9 Sudoeste 24 Sudoeste 0 914.5 -1.7 25
2019-04-04 16:00:00 17.2 10 Sur 24 Sur 0 915 -1.7 23
2019-04-04 15:00:00 16 6 Sudeste 21 Sur 0 915.6 -1.4 24
2019-04-04 14:00:00 13.9 7 Sudoeste 16 Norte 0 916.2 -0.6 26
2019-04-04 13:00:00 12.4 9 Norte 26 Norte 0 916.7 0.1 32
2019-04-04 12:00:00 10.3 15 Norte 34 Norte 0 917 0.7 33
2019-04-04 11:00:00 8.5 21 Norte 35 Norte 0 916.8 1 41
2019-04-04 10:00:00 6.3 11 Nordeste 31 Norte 0 916.6 1.4 48
2019-04-04 09:00:00 4.8 14 Nordeste 34 Nordeste 0 916.3 1.3 51
2019-04-04 08:00:00 4.5 12 Nordeste 30 Norte 0 915.8 0.8 51
2019-04-04 07:00:00 5.2 13 Nordeste 29 Nordeste 0 915.2 0.1 48
2019-04-04 06:00:00 5.7 11 Norte 29 Nordeste 0 915 -0.5 46
2019-04-04 05:00:00 6 14 Norte 25 Norte 0 915 -0.9 50
2019-04-04 04:00:00 7.1 9 Norte 21 Norte 0 915.1 -1.1 47
2019-04-04 03:00:00 7.9 4 Nordeste 28 Norte 0 915.5 -1.1 43
2019-04-04 02:00:00 8.9 11 Noroeste 38 Noroeste 0 915.9 -0.8 34
2019-04-04 01:00:00 9.5 16 Noroeste 32 Norte 0 916.2 -0.1 37
2019-04-04 00:00:00 10.3 16 Noroeste 33 Noroeste 0 916.6 0.9 43
2019-04-03 23:00:00 11.2 14 Noroeste 27 Oeste 0 916.7 1.2 51
2019-04-03 22:00:00 11.7 17 Noroeste -- -- 0 916.3 0.7 47
2019-04-03 21:00:00 13.4 -- -- -- -- 0 915.7 -0.2 44
2019-04-03 20:00:00 15.9 15 Sudoeste -- -- 0 915.5 -1 39
2019-04-03 19:00:00 17.1 -- -- -- -- 0 915.6 -1.7 37
2019-04-03 18:00:00 17.4 14 Sudoeste -- -- 0 915.9 -2.1 37
2019-04-03 17:00:00 17.2 -- -- -- -- 0 916.5 -2.6 38
2019-04-03 16:00:00 19 15 Sudoeste 39 Sudoeste 0 917.3 -2.4 37
2019-04-03 15:00:00 17.6 13 Sudoeste 31 Sudoeste 0 918 -2.6 45
2019-04-03 14:00:00 17 14 Sudoeste 33 Sudoeste 0 919.1 -2.1 49
2019-04-03 13:00:00 16.4 14 Sur 34 Sur 0 919.7 -1.9 53
2019-04-03 12:00:00 14.4 9 Sur 19 Sur 0 920.6 -1.4 63
2019-04-03 11:00:00 12.3 6 Sur 15 Sur 0 921.2 -1.2 71
2019-04-03 10:00:00 9.7 4 Sudoeste 9 Sudoeste 0 921.6 -0.9 84
2019-04-03 09:00:00 7.9 2 Norte 6 Oeste 0 922 -0.8 85
2019-04-03 08:00:00 7.4 2 Noroeste 5 Sudoeste 0 922.4 -1 84
2019-04-03 07:00:00 7.8 3 Sur 9 Sur 0 922.5 -1.5 82
2019-04-03 06:00:00 7.9 2 Noroeste 4 Sur 0 922.8 -2.1 79
2019-04-03 05:00:00 8.4 0 Calma 7 Sudoeste 0 923.4 -1.9 79
2019-04-03 04:00:00 8.7 0 Calma 5 Sudoeste 0 924 -1.7 75
2019-04-03 03:00:00 9.3 2 Norte 9 Sur 0 924.9 -1.1 77
2019-04-03 02:00:00 10.3 6 Sur 9 Sur 0 925.3 -0.9 74
2019-04-03 01:00:00 10.6 3 Oeste 12 Oeste 0 925.7 -0.4 72
2019-04-03 00:00:00 11.8 9 Oeste 13 Oeste 0 926 0.3 67
2019-04-02 23:00:00 12.1 7 Sudoeste 12 Oeste 0 926.2 0.7 64
2019-04-02 22:00:00 12.5 4 Sudoeste 8 Oeste 0 926.1 0.7 63
2019-04-02 21:00:00 13.4 5 Oeste 14 Oeste 0 925.7 0.4 58
2019-04-02 20:00:00 16 8 Sudoeste 26 Sudoeste 0 925.5 -0.3 52
2019-04-02 19:00:00 16.6 10 Sudoeste 27 Sudoeste 0 925.4 -1 51
2019-04-02 18:00:00 18 11 Sur 27 Sur 0 925.3 -1.7 47
2019-04-02 17:00:00 18.1 10 Sur 25 Sur 0 925.8 -2 50
2019-04-02 16:00:00 18.2 10 Sudoeste 22 Sur 0 926.4 -1.9 50
2019-04-02 15:00:00 14.7 8 Oeste 18 Sudoeste 0 927 -1.7 57
2019-04-02 14:00:00 14 6 Sudoeste 14 Oeste 0 927.8 -0.7 61
2019-04-02 13:00:00 14.3 7 Sur 19 Sur 0 928.3 0.1 62
2019-04-02 12:00:00 12.5 8 Sudoeste 16 Sudoeste 0 928.7 0.7 70
2019-04-02 11:00:00 11 5 Sudoeste 13 Sudoeste 0 928.5 0.9 79
2019-04-02 10:00:00 9.7 2 Sur 9 Sudoeste 0 928.2 0.8 84
2019-04-02 09:00:00 9 2 Sudoeste 10 Oeste 0 928 0.9 85
2019-04-02 08:00:00 8.8 6 Oeste 13 Sudoeste 0 927.6 0 86
2019-04-02 07:00:00 8.6 5 Oeste 14 Sudoeste 0 927.4 -0.5 86
2019-04-02 06:00:00 8.6 2 Sur 12 Oeste 0 927.1 -0.9 85
2019-04-02 05:00:00 9.1 4 Sudoeste 13 Sudoeste 0 927.6 -0.5 86
2019-04-02 04:00:00 9.3 7 Sudoeste 18 Sudoeste 0 927.9 -0.4 85
2019-04-02 03:00:00 9.9 8 Sudoeste 15 Sudoeste 0 928 0 84
2019-04-02 02:00:00 10.4 4 Sur 15 Sudoeste 0 928.1 0.5 83
2019-04-02 01:00:00 10.6 5 Sur 13 Sudoeste 0 928.3 1.2 79
2019-04-02 00:00:00 10.8 4 Sur 11 Sudoeste 0 928 1.9 76
2019-04-01 23:00:00 11.1 4 Sudoeste 14 Sudoeste 0 927.6 2.1 74
2019-04-01 22:00:00 11.3 7 Sudoeste 21 Sudoeste 0 927.1 2.1 72
2019-04-01 21:00:00 11.4 9 Sudoeste 24 Sudoeste 0 926.1 0.9 69
2019-04-01 20:00:00 12.9 10 Sudoeste 22 Sudoeste 0 925.5 0.7 65
2019-04-01 19:00:00 13.4 11 Sudoeste 30 Sudoeste 0 925 0.1 62
2019-04-01 18:00:00 14.1 13 Sudoeste 31 Sudoeste 0 925.2 -0.3 66
2019-04-01 17:00:00 16.6 11 Sudoeste 19 Sudoeste 0 924.8 -1.2 52
2019-04-01 16:00:00 15.4 6 Sudoeste 17 Sudoeste 0 924.9 -1.4 54
2019-04-01 15:00:00 15 6 Oeste 23 Oeste 0 925.5 -0.8 64
2019-04-01 14:00:00 14 7 Sudoeste 19 Sur 0 926 0.3 70
2019-04-01 13:00:00 12.3 9 Sudoeste 18 Oeste 0 926.3 1.2 78
2019-04-01 12:00:00 11.7 7 Sur 15 Sur 0 926.3 1.6 83
2019-04-01 11:00:00 10.7 4 Sur 8 Sur 0 925.7 1.5 89
2019-04-01 10:00:00 9.8 0 Calma 8 Sur 0 925.1 1.3 89
2019-04-01 09:00:00 9.5 3 Sur 6 Sur 0 924.7 0.9 89
2019-04-01 08:00:00 9.1 3 Sur 6 Sur 0 924.2 0.3 89
2019-04-01 07:00:00 9 3 Sur 5 Sur 0 923.8 -0.1 89
2019-04-01 06:00:00 8.8 3 Norte 7 Sur 0 923.8 -0.3 88
2019-04-01 05:00:00 9 4 Sur 6 Sur 0 923.9 -0.2 88
2019-04-01 04:00:00 8.8 2 Noroeste 4 Noroeste 0 923.9 -0.2 88
2019-04-01 03:00:00 8.5 0 Calma 5 Norte 0 924.1 0.1 87
2019-04-01 02:00:00 9.1 3 Noroeste 5 Norte 0 924.1 0.2 87
2019-04-01 01:00:00 9.6 0 Calma 4 Sur 0 924.1 0.6 86
2019-04-01 00:00:00 10 3 Sudeste 8 Sudeste 0 924 1.4 86
2019-03-31 23:00:00 10.3 5 Sudeste 8 Sudeste 0 923.9 1.5 85
2019-03-31 22:00:00 10.6 3 Sudeste 9 Este 0 923.5 1.5 85
2019-03-31 21:00:00 10.8 4 Este 8 Este 0 922.6 0.3 83
2019-03-31 20:00:00 11.3 2 Nordeste 12 Nordeste 0 922.4 -0.1 80
2019-03-31 19:00:00 11.7 4 Nordeste 10 Este 0 922 -0.7 78
2019-03-31 18:00:00 11.7 5 Norte 8 Norte 0 922.3 -1 82
2019-03-31 17:00:00 11 2 Norte 10 Norte 0 922.5 -1.2 88
2019-03-31 16:00:00 10.1 3 Nordeste 17 Norte 0.2 922.7 -1.4 88
2019-03-31 15:00:00 10.1 10 Norte 18 Norte 0.6 923.3 -1.1 87
2019-03-31 14:00:00 10.9 3 Sur 8 Sur 0 923.7 -0.3 86
2019-03-31 13:00:00 10.8 3 Sudeste 10 Sudeste 0 924.1 0.2 87
2019-03-31 12:00:00 10.6 4 Sudeste 11 Sudeste 0.2 924.4 0.2 89
2019-03-31 11:00:00 9.8 3 Este 12 Nordeste 1.8 924 0 89
2019-03-31 10:00:00 9 4 Norte 10 Norte 2 923.9 0 89
2019-03-31 09:00:00 8.9 0 Calma 14 Este 1.8 924.2 -0.1 89
2019-03-31 08:00:00 9 8 Sudeste 15 Sudeste 0.6 924 -1.1 88
2019-03-31 07:00:00 9.5 6 Sudeste 13 Este 0.8 923.9 -1.6 88
2019-03-31 06:00:00 9.6 5 Nordeste 8 Nordeste 1.6 924.3 -1.4 86
2019-03-31 05:00:00 10.2 3 Sudoeste 13 Sur 1 925.1 -1.1 84
2019-03-31 03:00:00 11.6 2 Nordeste 15 Sudoeste 0 925.7 -0.7 69
2019-03-31 01:00:00 12.1 7 Sur 15 Sur 0 926.2 -0.2 64
2019-03-31 00:00:00 12.4 3 Sudeste 11 Sur 0 926.4 -0.1 64
2019-03-30 23:00:00 13.5 3 Este 12 Este 0 926.4 0.6 51
2019-03-30 22:00:00 14.4 6 Este 12 Este 0 926.4 1 47
2019-03-30 21:00:00 15.7 3 Este 16 Sur 0 926.5 1.1 43
2019-03-30 20:00:00 16.8 8 Sudeste 22 Sur 0 925.8 0.4 38
2019-03-30 19:00:00 18.7 3 Sur 13 Sur 0 925.4 -0.2 31
2019-03-30 18:00:00 20.9 6 Sur 19 Sudoeste 0 925.4 -1 27
2019-03-30 17:00:00 21.8 6 Sur 18 Este 0 925.4 -2.2 26
2019-03-30 16:00:00 22.5 5 Sudeste 23 Sur 0 925.6 -2.9 25
2019-03-30 15:00:00 22.2 8 Sur 18 Sur 0 926.4 -3 25
2019-03-30 14:00:00 20.2 4 Este 18 Sudeste 0 927.6 -2.6 29
2019-03-30 13:00:00 18.9 6 Sudeste 19 Sudeste 0 928.5 -1.8 31
2019-03-30 12:00:00 17.2 6 Sudeste 14 Sudeste 0 929.4 -1 33
2019-03-30 11:00:00 14.1 3 Sur 14 Este 0 930.2 -0.1 44
2019-03-30 10:00:00 11.9 5 Este 17 Este 0 930.3 -0.1 49
2019-03-30 09:00:00 9.2 4 Norte 8 Nordeste 0 930.4 0 61
2019-03-30 08:00:00 6.2 4 Norte 10 Nordeste 0 930.3 -0.4 69
2019-03-30 07:00:00 6.4 5 Nordeste 14 Este 0 930.4 -0.8 67
2019-03-30 06:00:00 6.5 4 Este 12 Nordeste 0 930.4 -0.8 69
2019-03-30 05:00:00 6.6 4 Norte 5 Sudoeste 0 930.7 -0.9 68
2019-03-30 04:00:00 6.9 3 Sur 7 Este 0 931.2 -0.9 68
2019-03-30 03:00:00 7.4 5 Este 9 Este 0 931.2 -1.1 66
2019-03-30 02:00:00 7.9 5 Este 10 Sudeste 0 931.6 -0.6 63
2019-03-30 01:00:00 8.7 4 Este 11 Este 0 932.1 0.1 59
2019-03-30 00:00:00 9.6 5 Sudeste 11 Sudeste 0 932.3 0.8 56
2019-03-29 23:00:00 10.6 3 Norte 13 Este 0 932.2 1.2 48
2019-03-29 22:00:00 12 3 Este 18 Este 0 932 1 43
2019-03-29 21:00:00 13.1 7 Este 16 Sudeste 0 931.5 0.6 33
2019-03-29 20:00:00 14.9 3 Norte 5 Sudoeste 0 931 0 29
2019-03-29 19:00:00 17.4 3 Sur 12 Sur 0 931 -0.4 26
2019-03-29 18:00:00 18.1 6 Sudeste 23 Sudeste 0 930.9 -1 24
2019-03-29 17:00:00 19 6 Sudoeste 23 Sudeste 0 931 -1.6 23
2019-03-29 16:00:00 18.7 9 Sur 23 Sur 0 931.4 -1.7 22
2019-03-29 15:00:00 18.5 6 Sur 21 Este 0 931.9 -1.8 20
2019-03-29 14:00:00 17.1 9 Sudeste 21 Sudeste 0 932.6 -1.5 21
2019-03-29 13:00:00 15.8 4 Sur 19 Este 0 933.1 -1.3 23
2019-03-29 12:00:00 14.2 7 Este 20 Sudeste 0 933.7 -0.5 22
2019-03-29 11:00:00 12.4 5 Este 17 Nordeste 0 934.1 0 25
2019-03-29 10:00:00 9.3 4 Sudeste 10 Este 0 934.4 0.8 30
2019-03-29 09:00:00 6.1 3 Noroeste 6 Norte 0 934.2 0.8 39
2019-03-29 08:00:00 4.2 3 Norte 6 Norte 0 934.1 0.9 42
2019-03-29 07:00:00 4.3 3 Norte 5 Sudeste 0 933.6 0.2 39
2019-03-29 06:00:00 4.6 2 Norte 6 Sur 0 933.4 -0.2 41
2019-03-29 05:00:00 5.2 0 Calma 6 Sudeste 0 933.2 -1 42
2019-03-29 04:00:00 5.5 2 Nordeste 5 Norte 0 933.4 -0.9 47
2019-03-29 03:00:00 6.1 4 Norte 6 Norte 0 933.6 -0.8 46
2019-03-29 02:00:00 6.7 2 Nordeste 5 Este 0 934.2 -0.5 47
2019-03-29 01:00:00 7.2 3 Sur 14 Sur 0 934.3 -0.5 46
2019-03-29 00:00:00 8.2 7 Sur 12 Sur 0 934.4 0.1 36
2019-03-28 23:00:00 9 4 Sudeste 9 Sudeste 0 934.7 1.2 28
2019-03-28 22:00:00 10.1 3 Sudeste 13 Sur 0 934.8 2.2 28
2019-03-28 21:00:00 12 6 Sudeste 22 Sudeste 0 934.3 1.9 25
2019-03-28 20:00:00 13.9 8 Sudeste 25 Sudeste 0 933.5 1.1 23
2019-03-28 19:00:00 17.7 5 Sur 18 Sur 0 932.6 -0.3 17
2019-03-28 18:00:00 18.8 5 Sur 19 Este 0 932.4 -1.3 16
2019-03-28 17:00:00 19.6 9 Sudeste 20 Sudeste 0 932.4 -2.1 16
2019-03-28 16:00:00 19.6 6 Sudeste 21 Sur 0 932.9 -2.3 14
2019-03-28 15:00:00 19.1 7 Sudeste 23 Sudeste 0 933.7 -2 14
2019-03-28 14:00:00 18 7 Sudeste 24 Sudeste 0 934.5 -1.4 14
2019-03-28 13:00:00 16.7 9 Sur 25 Sudeste 0 935.2 -0.8 14
2019-03-28 12:00:00 15.3 9 Sudeste 24 Este 0 935.7 -0.1 14
2019-03-28 11:00:00 13.1 7 Sudeste 19 Sudeste 0 935.9 0.3 18
2019-03-28 10:00:00 10.1 6 Este 23 Este 0 936 0.9 22
2019-03-28 09:00:00 6.1 5 Norte -- -- 0 935.8 0.9 37
2019-03-28 08:00:00 4.1 6 Nordeste -- -- 0 935.6 0.8 42
2019-03-28 07:00:00 3.6 8 Nordeste -- -- 0 935.1 0.4 52
2019-03-28 06:00:00 4.5 4 Norte 6 Noroeste 0 934.9 0.1 59
2019-03-28 05:00:00 5.3 3 Noroeste 10 Este 0 934.8 -0.3 57
2019-03-28 04:00:00 6.3 2 Sudeste 10 Este 0 934.7 -0.3 56
2019-03-28 03:00:00 6.8 3 Norte 6 Norte 0 934.8 0 44
2019-03-28 02:00:00 7.5 2 Sudeste 8 Este 0 935.1 0.8 44
2019-03-28 01:00:00 8.8 4 Este 13 Este 0 935 1.2 41
2019-03-28 00:00:00 9.5 5 Este 14 Este 0 934.8 1.6 31
2019-03-27 23:00:00 10 5 Sudeste 14 Este 0 934.3 2 29
2019-03-27 22:00:00 11.4 6 Este 24 Este 0 933.8 2.2 25
2019-03-27 21:00:00 12.2 7 Este 19 Este 0 933.2 2.2 22
2019-03-27 20:00:00 13.4 7 Este -- -- 0 932.3 1.4 19
2019-03-27 19:00:00 15.8 6 Nordeste 23 Este 0 931.6 0.5 16
2019-03-27 18:00:00 17.2 5 Este -- -- 0 931 -0.3 15
2019-03-27 17:00:00 17.7 -- -- -- -- 0 930.9 -1 14
2019-03-27 16:00:00 18.2 8 Nordeste -- -- 0 931.1 -1.3 13
2019-03-27 15:00:00 17.4 10 Nordeste -- -- 0 931.3 -1.5 14
2019-03-27 14:00:00 17.1 -- -- -- -- 0 931.9 -0.9 14
2019-03-27 13:00:00 15.7 11 Este 28 Este 0 932.4 0 16
2019-03-27 12:00:00 14.4 8 Nordeste 37 Norte 0 932.8 0.6 19
2019-03-27 11:00:00 13.2 7 Este 28 Este 0 932.8 0.8 23
2019-03-27 10:00:00 11 8 Este 34 Nordeste 0 932.4 1.2 27
2019-03-27 09:00:00 8.2 8 Nordeste 31 Este 0 932.2 1.4 33
2019-03-27 08:00:00 5 5 Nordeste 10 Nordeste 0 932 1.6 40
2019-03-27 07:00:00 5 6 Norte 14 Nordeste 0 931.2 1.3 41
2019-03-27 06:00:00 5.8 4 Nordeste 14 Nordeste 0 930.8 0.9 39
2019-03-27 05:00:00 6.5 3 Nordeste 13 Nordeste 0 930.4 0.7 43
2019-03-27 04:00:00 7.6 8 Este 16 Este 0 929.9 0.3 37
2019-03-27 03:00:00 8.4 6 Este 17 Este 0 929.9 0.7 31
2019-03-27 02:00:00 9.3 7 Nordeste 26 Nordeste 0 929.7 0.3 32
2019-03-27 01:00:00 10.2 7 Nordeste 24 Nordeste 0 929.6 0.7 30
2019-03-27 00:00:00 10.3 8 Nordeste 24 Nordeste 0 929.2 0.8 40